Terminal Aerodrome Forecast
Issued by NWS Grand Forks, ND

Home | Current Version | Previous Version | Graphics & Text | Print | Product List | Glossary On
Versions: 1 2 3 4 5 6 7 8 9 10 11 12 13 14 15 16 17 18 19 20 21
000
FTUS43 KFGF 301100
TAFFAR
TAF
KFAR 301120Z 3012/3112 35010KT P6SM BKN015 OVC025
     FM301300 36009KT P6SM SCT025
     FM302000 VRB06KT P6SM SCT250
     FM310900 14010KT P6SM BKN060=

USA.gov is the U.S. government's official web portal to all federal, state and local government web resources and services.